ADDS METAR Data INFO
IDs: Format: Raw Decoded Include TAF

Data at: 0153 UTC 17 Oct 2017

KDQH 170135Z AUTO 35009KT 10SM BKN037 BKN070 21/13 A3007 RMK AO2
KDQH 170115Z AUTO 34007KT 10SM CLR 21/13 A3007 RMK AO2
KDQH 170055Z AUTO 36011KT 10SM CLR 22/14 A3006 RMK AO2
KDQH 170035Z AUTO 36007KT 10SM CLR 22/15 A3005 RMK AO2
KDQH 170015Z AUTO 35008KT 10SM CLR 23/16 A3004 RMK AO2
KDQH 162355Z AUTO 35009KT 10SM CLR 23/17 A3003 RMK AO2
KDQH 162335Z AUTO 34007KT 10SM CLR 23/18 A3002 RMK AO2 LTG DSNT SE
KDQH 162315Z AUTO 36007KT 320V020 10SM CLR 25/18 A3001 RMK AO2
KDQH 162255Z AUTO 34007KT 10SM SCT070 25/18 A3000 RMK AO2 LTG DSNT E
KDQH 162235Z AUTO 33005KT 10SM BKN060 26/19 A2999 RMK AO2
KDQH 162215Z AUTO 34004KT 10SM OVC060 26/19 A2998 RMK AO2
KDQH 162155Z AUTO 34007G15KT 10SM OVC060 26/19 A2997 RMK AO2 LTG DSNT SE AND SW
KDQH 162135Z AUTO 35008G14KT 10SM SCT060 26/19 A2997 RMK AO2 LTG DSNT S AND SW
KDQH 162115Z AUTO 35010G15KT 10SM CLR 27/20 A2997 RMK AO2 LTG DSNT S
KDQH 162055Z AUTO 34010KT 10SM SCT065 27/20 A2996 RMK AO2 LTG DSNT S
KDQH 162035Z AUTO 35011G14KT 10SM SCT050 BKN065 28/21 A2997 RMK AO2
KDQH 162015Z AUTO 36007KT 10SM SCT046 28/21 A2997 RMK AO2
KDQH 161955Z AUTO 33008KT 10SM SCT046 27/19 A2997 RMK AO2
KDQH 161935Z AUTO 33009KT 10SM SCT043 BKN060 BKN110 28/20 A2996 RMK AO2 LTG DSNT E AND SW
KDQH 161915Z AUTO 35008KT 10SM SCT046 SCT060 BKN110 28/20 A2996 RMK AO2
KDQH 161855Z AUTO 34007KT 300V360 10SM BKN045 OVC065 30/18 A2996 RMK AO2 LTG DSNT NE
KDQH 161835Z AUTO 33005KT 10SM BKN047 BKN055 BKN075 30/18 A2997 RMK AO2 LTG DSNT W
KDQH 161815Z AUTO 25005KT 10SM SCT042 SCT050 30/18 A2998 RMK AO2
KDQH 161755Z AUTO 35005KT 10SM OVC040 30/20 A3000 RMK AO2
KDQH 161735Z AUTO 25006KT 10SM BKN038 BKN060 OVC095 30/19 A3001 RMK AO2 LTG DSNT W
KDQH 161715Z AUTO 27005KT 10SM SCT029 SCT034 BKN095 30/20 A3002 RMK AO2
KDQH 161655Z AUTO 32005KT 10SM SCT029 SCT034 BKN050 29/21 A3003 RMK AO2
KDQH 161635Z AUTO 00000KT 10SM SCT031 SCT045 BKN050 28/20 A3004 RMK AO2 LTG DSNT SW
KDQH 161615Z AUTO 26006KT 10SM SCT019 BKN029 BKN046 28/21 A3005 RMK AO2
KDQH 161555Z AUTO 00000KT 10SM BKN019 BKN026 BKN033 27/22 A3005 RMK AO2
KDQH 161535Z AUTO 00000KT 10SM SCT015 27/22 A3006 RMK AO2
KDQH 161515Z AUTO 24003KT 10SM SCT013 26/22 A3006 RMK AO2
KDQH 161455Z AUTO 28004KT 10SM SCT011 24/23 A3007 RMK AO2
KDQH 161435Z AUTO 25004KT 10SM SCT005 23/23 A3007 RMK AO2
KDQH 161415Z AUTO 25003KT 10SM BKN003 BKN006 23/22 A3006 RMK AO2
KDQH 161355Z AUTO 24003KT 3SM BR OVC003 22/22 A3006 RMK AO2
KDQH 161335Z AUTO 00000KT 1/4SM FG OVC003 22/22 A3006 RMK AO2
KDQH 161315Z AUTO 00000KT 1/4SM FG OVC003 22/21 A3006 RMK AO2
KDQH 161255Z AUTO 30003KT 1/4SM FG OVC003 21/21 A3005 RMK AO2
KDQH 161235Z AUTO 00000KT 1/4SM FG OVC003 21/21 A3005 RMK AO2
KDQH 161215Z AUTO 00000KT M1/4SM FG OVC003 21/21 A3005 RMK AO2
KDQH 161155Z AUTO 00000KT 1/4SM FG OVC003 21/21 A3005 RMK AO2
KDQH 161135Z AUTO 00000KT 1/4SM FG OVC003 21/21 A3005 RMK AO2
KDQH 161115Z AUTO 00000KT 1/4SM FG OVC003 21/21 A3005 RMK AO2
KDQH 161055Z AUTO 00000KT 1/4SM FG OVC003 21/21 A3004 RMK AO2
KDQH 161035Z AUTO 00000KT 1/4SM FG OVC003 21/21 A3004 RMK AO2
KDQH 161015Z AUTO 00000KT 1/4SM FG OVC003 21/21 A3003 RMK AO2
KDQH 160955Z AUTO 00000KT 1/2SM FG OVC003 21/21 A3003 RMK AO2
KDQH 160935Z AUTO 00000KT M1/4SM FG OVC003 21/20 A3003 RMK AO2
KDQH 160915Z AUTO 00000KT 1/4SM FG OVC003 20/20 A3003 RMK AO2
KDQH 160855Z AUTO 00000KT 1/2SM FG OVC003 20/20 A3002 RMK AO2
KDQH 160835Z AUTO 00000KT 1/4SM FG OVC003 20/20 A3003 RMK AO2
KDQH 160815Z AUTO 00000KT 1 1/4SM BR OVC003 20/20 A3003 RMK AO2
KDQH 160755Z AUTO 00000KT 1 1/4SM BR OVC003 20/20 A3004 RMK AO2 VIS 1/2V5
KDQH 160735Z AUTO 00000KT 1/2SM FG OVC005 20/20 A3004 RMK AO2
KDQH 160715Z AUTO 00000KT 1SM BR BKN005 21/20 A3005 RMK AO2
KDQH 160655Z AUTO 00000KT 4SM BR CLR 21/20 A3005 RMK AO2
KDQH 160635Z AUTO 00000KT 1/2SM FG VV005 21/20 A3005 RMK AO2 VIS 1/4V3
KDQH 160615Z AUTO 00000KT 1SM BR VV007 20/20 A3006 RMK AO2
KDQH 160555Z AUTO 00000KT 10SM CLR 21/20 A3006 RMK AO2
KDQH 160535Z AUTO 00000KT 7SM CLR 21/21 A3006 RMK AO2
KDQH 160515Z AUTO 00000KT 10SM CLR 21/21 A3006 RMK AO2
KDQH 160455Z AUTO 00000KT 10SM CLR 21/21 A3006 RMK AO2
KDQH 160435Z AUTO 00000KT 10SM CLR 22/22 A3006 RMK AO2
KDQH 160415Z AUTO 00000KT 10SM CLR 22/22 A3006 RMK AO2
KDQH 160355Z AUTO 15003KT 10SM CLR 22/22 A3007 RMK AO2
KDQH 160335Z AUTO 00000KT 10SM CLR 22/22 A3007 RMK AO2
KDQH 160315Z AUTO 00000KT 10SM CLR 23/22 A3008 RMK AO2
KDQH 160255Z AUTO 15003KT 10SM CLR 23/22 A3008 RMK AO2
KDQH 160235Z AUTO 00000KT 10SM CLR 23/22 A3009 RMK AO2
KDQH 160215Z AUTO 00000KT 10SM CLR 23/21 A3009 RMK AO2
KDQH 160155Z AUTO 00000KT 10SM CLR 22/21 A3008 RMK AO2
KDQH 160135Z AUTO 00000KT 10SM CLR 23/21 A3009 RMK AO2
KDQH 160115Z AUTO 00000KT 10SM CLR 23/21 A3007 RMK AO2
KDQH 160055Z AUTO 00000KT 10SM CLR 23/20 A3007 RMK AO2
KDQH 160035Z AUTO 00000KT 10SM CLR 23/20 A3006 RMK AO2
KDQH 160015Z AUTO 00000KT 10SM CLR 25/20 A3006 RMK AO2
KDQH 152355Z AUTO 00000KT 10SM CLR 23/20 A3005 RMK AO2
KDQH 152335Z AUTO 00000KT 10SM CLR 25/20 A3005 RMK AO2 LTG DSNT W
KDQH 152315Z AUTO 00000KT 10SM CLR 26/19 A3005 RMK AO2
KDQH 152255Z AUTO 01005KT 10SM CLR 27/19 A3005 RMK AO2
KDQH 152235Z AUTO 02004KT 10SM CLR 28/18 A3005 RMK AO2
KDQH 152215Z AUTO 04005KT 10SM CLR 28/18 A3005 RMK AO2
KDQH 152155Z AUTO 06004KT 10SM SCT046 SCT060 29/18 A3005 RMK AO2
KDQH 152135Z AUTO 04006KT 10SM BKN048 OVC060 30/18 A3006 RMK AO2
KDQH 152115Z AUTO 00000KT 10SM BKN050 30/18 A3006 RMK AO2
KDQH 152055Z AUTO 00000KT 10SM CLR 30/18 A3006 RMK AO2
KDQH 152035Z AUTO 04004KT 10SM CLR 30/18 A3007 RMK AO2
KDQH 152015Z AUTO 02003KT 10SM SCT041 29/18 A3007 RMK AO2
KDQH 151955Z AUTO 04005KT 10SM SCT041 SCT055 28/19 A3008 RMK AO2
KDQH 151935Z AUTO 02005KT 10SM SCT055 SCT070 29/19 A3008 RMK AO2
KDQH 151915Z AUTO 05006KT 10SM SCT040 SCT060 SCT070 29/19 A3009 RMK AO2
KDQH 151855Z AUTO 34005KT 10SM BKN038 BKN050 30/20 A3010 RMK AO2
KDQH 151835Z AUTO 00000KT 10SM SCT038 SCT050 SCT060 28/18 A3012 RMK AO2
KDQH 151815Z AUTO 00000KT 10SM SCT035 SCT048 SCT050 28/19 A3013 RMK AO2
KDQH 151755Z AUTO 07004KT 10SM SCT035 28/19 A3014 RMK AO2
KDQH 151735Z AUTO 04005KT 10SM CLR 28/20 A3015 RMK AO2
KDQH 151715Z AUTO 11003KT 10SM CLR 28/20 A3016 RMK AO2
KDQH 151655Z AUTO 14004KT 10SM SCT023 27/20 A3017 RMK AO2
KDQH 151635Z AUTO 00000KT 10SM SCT019 SCT025 26/21 A3018 RMK AO2
KDQH 151615Z AUTO 09003KT 10SM BKN014 BKN022 26/21 A3018 RMK AO2
KDQH 151555Z AUTO 00000KT 10SM BKN012 25/21 A3019 RMK AO2
KDQH 151535Z AUTO 05004KT 10SM BKN008 25/21 A3019 RMK AO2
KDQH 151515Z AUTO 09005KT 10SM OVC006 23/21 A3020 RMK AO2
KDQH 151455Z AUTO 10005KT 7SM OVC004 22/21 A3020 RMK AO2
KDQH 151435Z AUTO 07004KT 7SM OVC004 22/21 A3020 RMK AO2
KDQH 151415Z AUTO 06005KT 5SM BR OVC002 21/21 A3020 RMK AO2
KDQH 151355Z AUTO 07006KT 5SM BR OVC002 21/20 A3020 RMK AO2